Aviation Digital Data Service (ADDS)

Output produced by METARs form (0514 UTC 25 May 2018)
found at http://www.aviationweather.gov/adds/metars/
 
TAF FWCL 241500Z 2418/2524 22006KT 9999 SCT030 
     FM241900 15004KT CAVOK 
     PROB30 
     TEMPO 2502/2505 VRB02KT 4000 MIFG FEW004 SCT035 
     BECMG 2507/2509 09006KT 9999 FEW015 SCT080 
     BECMG 2511/2513 FEW020 BKN080 
     FM251700 16004KT CAVOK